Latest Weather Observations for Minlaton Airport

IDS60801

Issued at 6:01 pm CST Sunday 25 September 2016 (issued every 30 minutes, with the page automatically refreshed every 10 minutes)

About weather observations | Map of weather stations | Latest weather observations for SA | Other Formats
Station Details ID: 022031 Name: MINLATON AERO Lat: -34.75 Lon: 137.53 Height: 32.0 m
Data from the previous 72 hours. | See also: Recent months at Minlaton Airport
Date/Time
CST
Temp
°C
App
Temp
°C
Dew
Point
°C
Rel
Hum
%
Delta-T
°C
Wind Press
QNH
hPa
Press
MSL
hPa
Rain since
9am
mm
Dir  Spd
km/h
Gust
km/h
Spd
kts
Gust
kts
25/06:00pm 12.6 10.7 7.7 72 2.4 NNW 7 7 4 4 1013.9 1013.9 0.0
25/05:30pm 12.9 9.5 6.0 63 3.3 NNW 13 19 7 10 1013.8 1013.8 0.0
25/05:00pm 14.4 10.5 7.0 61 3.6 NW 17 20 9 11 1013.6 1013.6 0.0
25/04:30pm 13.7 9.7 6.6 62 3.4 NNW 17 20 9 11 1013.6 1013.6 0.0
25/04:00pm 15.2 11.1 6.2 55 4.3 NNW 17 22 9 12 1013.6 1013.6 0.0
25/03:30pm 14.6 9.7 6.9 60 3.8 NNW 22 30 12 16 1013.9 1013.9 0.0
25/03:00pm 16.4 11.7 7.6 56 4.4 NW 22 30 12 16 1013.9 1013.9 0.0
25/02:30pm 15.9 10.6 6.6 54 4.6 NW 24 32 13 17 1014.2 1014.2 0.0
25/02:00pm 15.9 10.4 7.7 58 4.1 NW 26 35 14 19 1014.5 1014.5 0.0
25/01:30pm 15.5 10.1 8.0 61 3.8 NW 26 37 14 20 1014.7 1014.7 0.0
25/01:00pm 15.5 10.5 8.0 61 3.8 NW 24 35 13 19 1014.9 1014.9 0.0
25/12:30pm 15.5 10.8 6.2 54 4.5 NW 20 30 11 16 1015.0 1015.0 0.0
25/12:00pm 15.8 11.4 7.3 57 4.2 WNW 20 32 11 17 1015.4 1015.4 0.0
25/11:30am 15.0 10.7 8.0 63 3.5 W 20 30 11 16 1015.5 1015.5 0.0
25/11:00am 13.4 9.5 8.7 73 2.4 WSW 19 28 10 15 1015.7 1015.7 0.0
25/10:30am 14.8 10.3 7.1 60 3.8 WNW 20 28 11 15 1016.0 1016.0 0.0
25/10:00am 14.8 11.1 7.8 63 3.5 WNW 17 26 9 14 1016.1 1016.1 0.0
25/09:30am 14.0 10.8 6.8 62 3.5 W 13 20 7 11 1016.1 1016.1 0.0
25/09:00am 13.0 10.4 7.7 70 2.6 S 11 13 6 7 1016.0 1016.0 0.2
25/08:30am 11.1 5.3 7.8 80 1.6 SW 28 33 15 18 1016.2 1016.2 0.2
25/08:00am 10.9 7.0 7.2 78 1.8 W 17 20 9 11 1016.2 1016.2 0.2
25/07:30am 10.2 5.6 6.5 78 1.7 W 20 35 11 19 1016.0 1016.0 0.2
25/07:00am 9.2 6.8 6.8 85 1.1 SW 9 11 5 6 1015.5 1015.5 0.2
25/06:30am 8.6 5.3 6.2 85 1.1 SW 13 15 7 8 1015.0 1015.0 0.2
25/06:00am 8.1 4.9 5.0 81 1.4 SW 11 13 6 7 1014.5 1014.5 0.2
25/05:30am 9.0 6.7 5.9 81 1.4 SW 7 11 4 6 1014.2 1014.2 0.2
25/05:00am 8.4 5.8 6.0 85 1.1 SW 9 13 5 7 1014.0 1014.0 0.2
25/04:30am 6.5 3.6 4.8 89 0.7 SSE 9 9 5 5 1013.4 1013.4 0.2
25/04:00am 5.8 2.5 2.4 79 1.4 SW 9 11 5 6 1013.3 1013.3 0.2
25/03:30am 6.6 2.5 4.4 86 0.9 WSW 15 19 8 10 1013.5 1013.5 0.2
25/03:00am 7.6 4.1 5.4 86 1.0 WSW 13 20 7 11 1013.3 1013.3 0.2
25/02:30am 6.8 3.5 4.6 86 1.0 SW 11 13 6 7 1013.2 1013.2 0.2
25/02:00am 6.2 2.4 3.9 85 1.0 SW 13 15 7 8 1013.0 1013.0 0.2
25/01:30am 6.7 3.0 4.5 86 1.0 SW 13 15 7 8 1013.2 1013.2 0.2
25/01:00am 7.1 3.5 4.8 85 1.0 WSW 13 17 7 9 1013.5 1013.5 0.2
25/12:30am 6.5 3.4 3.8 83 1.1 SSW 9 13 5 7 1013.6 1013.6 0.2
25/12:00am 7.3 4.5 5.0 85 1.0 SSW 9 13 5 7 1013.5 1013.5 0.2
 
Date/Time
CST
Temp
°C
App
Temp
°C
Dew
Point
°C
Rel
Hum
%
Delta-T
°C
Wind Press
QNH
hPa
Press
MSL
hPa
Rain since
9am
mm
Dir  Spd
km/h
Gust
km/h
Spd
kts
Gust
kts
24/11:30pm 6.7 3.0 4.5 86 1.0 WSW 13 15 7 8 1013.5 1013.5 0.2
24/11:00pm 6.5 2.7 4.0 84 1.1 SW 13 15 7 8 1013.5 1013.5 0.2
24/10:30pm 6.9 3.6 4.7 86 1.0 SW 11 15 6 8 1013.4 1013.4 0.2
24/10:00pm 7.3 3.3 5.0 85 1.0 SW 15 17 8 9 1013.3 1013.3 0.2
24/09:30pm 7.9 4.0 5.4 84 1.1 SW 15 20 8 11 1013.2 1013.2 0.2
24/09:00pm 7.6 4.1 5.4 86 1.0 SW 13 15 7 8 1013.0 1013.0 0.2
24/08:30pm 8.3 4.5 5.6 83 1.2 SW 15 19 8 10 1012.7 1012.7 0.2
24/08:00pm 9.3 4.8 6.0 80 1.5 SW 19 22 10 12 1012.4 1012.4 0.2
24/07:30pm 9.8 5.1 6.0 77 1.8 SW 20 28 11 15 1011.9 1011.9 0.2
24/07:00pm 10.4 5.8 6.4 76 1.9 SW 20 28 11 15 1011.3 1011.3 0.2
24/06:30pm 11.4 6.4 6.5 72 2.3 SW 22 30 12 16 1010.8 1010.8 0.2
24/06:00pm 12.4 6.4 6.9 69 2.6 SW 28 35 15 19 1010.3 1010.3 0.2
24/05:30pm 13.1 7.1 6.9 66 3.0 SW 28 44 15 24 1009.6 1009.6 0.2
24/05:00pm 13.0 7.2 7.9 71 2.5 SW 28 39 15 21 1009.0 1009.0 0.2
24/04:30pm 12.7 8.7 9.2 79 1.8 SW 20 33 11 18 1008.4 1008.4 0.2
24/04:00pm 14.4 10.7 9.4 72 2.6 WSW 19 26 10 14 1007.9 1007.9 0.2
24/03:30pm 14.6 9.6 9.6 72 2.6 SSW 26 35 14 19 1007.5 1007.5 0.2
24/03:00pm 16.2 11.0 10.3 68 3.1 SSW 28 37 15 20 1007.1 1007.1 0.2
24/02:46pm 14.7 7.9 9.3 70 2.8 SW 35 48 19 26 1006.9 1006.9 0.2
24/02:30pm 16.4 10.5 10.3 67 3.2 W 32 44 17 24 1006.7 1006.7 0.2
24/02:00pm 16.6 10.0 8.6 59 4.1 WSW 33 41 18 22 1006.5 1006.5 0.2
24/01:30pm 16.2 9.3 8.9 62 3.8 W 35 43 19 23 1006.6 1006.6 0.2
24/01:00pm 16.3 9.8 9.0 62 3.8 W 33 43 18 23 1006.7 1006.7 0.0
24/12:30pm 16.6 11.2 9.5 63 3.7 WSW 28 37 15 20 1006.8 1006.8 0.0
24/12:00pm 16.2 10.6 10.1 67 3.2 WSW 30 39 16 21 1006.8 1006.8 0.0
24/11:30am 16.2 11.3 11.2 72 2.7 WSW 28 39 15 21 1006.6 1006.6 0.0
24/11:00am 16.1 11.4 12.1 77 2.2 WSW 28 39 15 21 1006.5 1006.5 0.0
24/10:30am 15.7 12.2 13.4 86 1.3 W 24 32 13 17 1006.4 1006.4 0.0
24/10:00am 14.8 10.7 12.7 87 1.2 W 26 32 14 17 1006.4 1006.4 0.0
24/09:30am 14.4 11.6 13.1 92 0.7 NW 20 26 11 14 1006.4 1006.4 0.0
24/09:00am 15.0 11.4 13.0 88 1.1 NW 24 30 13 16 1006.2 1006.2 0.0
24/08:30am 14.9 11.3 12.9 88 1.1 NNW 24 30 13 16 1006.2 1006.2 0.0
24/08:00am 14.9 11.2 12.8 87 1.2 NW 24 35 13 19 1005.8 1005.8 0.0
24/07:30am 14.1 10.2 12.1 88 1.1 NW 24 37 13 20 1005.6 1005.6 0.0
24/07:00am 14.5 9.1 12.2 86 1.2 NNW 32 43 17 23 1005.3 1005.3 0.0
24/06:30am 14.7 8.6 11.8 83 1.6 NNW 35 46 19 25 1005.1 1005.1 0.0
24/06:00am 14.1 9.1 10.9 81 1.7 N 28 39 15 21 1004.5 1004.5 0.0
24/05:30am 14.4 9.2 10.2 76 2.2 N 28 43 15 23 1004.3 1004.3 0.0
24/05:00am 12.8 10.0 10.0 83 1.4 N 15 26 8 14 1003.6 1003.6 0.0
24/04:30am 13.3 9.9 9.2 76 2.1 N 17 22 9 12 1003.1 1003.1 0.0
24/04:00am 13.4 9.0 8.9 74 2.3 N 22 33 12 18 1003.3 1003.3 0.0
24/03:30am 13.5 8.7 9.0 74 2.3 N 24 30 13 16 1002.9 1002.9 0.0
24/03:00am 13.8 9.7 8.8 72 2.5 N 20 28 11 15 1003.5 1003.5 0.0
24/02:30am 13.8 8.5 8.4 70 2.7 N 26 32 14 17 1003.4 1003.4 0.0
24/02:00am 14.5 8.7 8.0 65 3.2 N 28 35 15 19 1004.0 1004.0 0.0
24/01:30am 15.3 9.6 6.8 57 4.2 N 26 32 14 17 1004.1 1004.1 0.0
24/01:00am 15.7 9.2 6.4 54 4.5 N 30 41 16 22 1004.6 1004.6 0.0
24/12:30am 14.3 9.0 6.9 61 3.6 N 24 30 13 16 1005.1 1005.1 0.0
24/12:00am 14.6 9.7 6.7 59 3.9 N 22 28 12 15 1005.0 1005.0 0.0
 
Date/Time
CST
Temp
°C
App
Temp
°C
Dew
Point
°C
Rel
Hum
%
Delta-T
°C
Wind Press
QNH
hPa
Press
MSL
hPa
Rain since
9am
mm
Dir  Spd
km/h
Gust
km/h
Spd
kts
Gust
kts
23/11:30pm 14.4 9.1 7.0 61 3.6 NNE 24 32 13 17 1004.8 1004.8 0.0
23/11:00pm 13.5 8.2 6.8 64 3.2 NNE 24 28 13 15 1005.1 1005.1 0.0
23/10:30pm 14.0 8.8 7.1 63 3.4 NNE 24 32 13 17 1005.4 1005.4 0.0
23/10:00pm 13.6 7.7 7.4 66 3.0 NNE 28 32 15 17 1005.7 1005.7 0.0
23/09:30pm 13.1 8.0 7.8 70 2.6 NNE 24 28 13 15 1006.2 1006.2 0.0
23/09:00pm 13.5 8.5 7.9 69 2.8 NE 24 30 13 16 1006.3 1006.3 0.0
23/08:30pm 13.3 7.9 8.2 71 2.5 NE 26 32 14 17 1006.3 1006.3 0.0
23/08:00pm 13.3 7.8 7.7 69 2.8 NE 26 32 14 17 1006.1 1006.1 0.0
23/07:30pm 13.7 8.3 8.1 69 2.8 NE 26 30 14 16 1006.1 1006.1 0.0
23/07:00pm 12.8 8.3 8.7 76 2.1 NE 22 24 12 13 1005.9 1005.9 0.0
23/06:30pm 13.8 9.5 9.3 74 2.3 NE 22 26 12 14 1005.8 1005.8 0.0
23/06:00pm 15.5 11.8 9.4 67 3.2 NE 19 22 10 12 1005.9 1005.9 0.0
23/05:30pm 17.5 13.9 9.7 60 4.1 NE 19 24 10 13 1005.9 1005.9 0.0
23/05:00pm 18.6 13.4 8.8 53 5.1 NNE 26 35 14 19 1005.9 1005.9 0.0
23/04:30pm 19.2 13.5 8.5 50 5.6 NNE 28 35 15 19 1006.1 1006.1 0.0
23/04:00pm 19.6 14.0 8.6 49 5.7 NNE 28 35 15 19 1006.5 1006.5 0.0
23/03:30pm 20.0 15.2 8.7 48 5.9 N 24 32 13 17 1006.8 1006.8 0.0
23/03:00pm 20.2 15.5 9.2 49 5.8 N 24 39 13 21 1007.4 1007.4 0.0
23/02:30pm 20.2 15.0 8.8 48 6.0 N 26 37 14 20 1007.6 1007.6 0.0
23/02:00pm 20.2 14.5 8.2 46 6.2 N 28 35 15 19 1008.0 1008.0 0.0
23/01:30pm 20.1 14.6 7.5 44 6.5 N 26 37 14 20 1008.6 1008.6 0.0
23/01:00pm 20.0 14.9 7.7 45 6.3 N 24 35 13 19 1009.2 1009.2 0.0
23/12:30pm 19.0 13.0 8.6 51 5.4 N 30 39 16 21 1009.8 1009.8 0.0
23/12:00pm 18.8 12.5 9.0 53 5.1 N 32 41 17 22 1010.1 1010.1 0.0
23/11:30am 18.1 11.9 9.2 56 4.7 N 32 44 17 24 1010.5 1010.5 0.0
23/11:00am 17.9 13.2 10.8 63 3.8 NNW 26 37 14 20 1011.2 1011.2 0.0
23/10:30am 16.5 10.2 9.0 61 3.9 NNW 32 41 17 22 1011.9 1011.9 0.0
23/10:00am 16.5 10.0 8.2 58 4.2 N 32 41 17 22 1012.3 1012.3 0.0
23/09:30am 15.6 9.3 7.6 59 4.0 N 30 41 16 22 1012.6 1012.6 0.0
23/09:00am 14.6 9.4 8.8 68 2.9 N 26 39 14 21 1012.9 1012.9 0.0
23/08:30am 13.2 8.2 8.1 71 2.5 N 24 32 13 17 1013.1 1013.1 0.0
23/08:00am 11.4 6.5 7.1 75 2.1 NNE 22 30 12 16 1013.1 1013.1 0.0
23/07:30am 10.0 3.8 6.2 77 1.8 NE 28 35 15 19 1012.9 1012.9 0.0
23/07:00am 8.1 2.1 5.2 82 1.3 NE 26 35 14 19 1013.5 1013.5 0.0
23/06:30am 7.0 0.9 5.0 87 0.9 NE 26 35 14 19 1013.6 1013.6 0.0
23/06:00am 6.6 0.1 4.8 88 0.8 NE 28 32 15 17 1013.8 1013.8 0.0
23/05:30am 6.6 0.9 4.8 88 0.8 NE 24 32 13 17 1014.0 1014.0 0.0
23/05:00am 6.4 1.1 4.9 90 0.7 ENE 22 28 12 15 1014.2 1014.2 0.0
23/04:30am 7.0 1.8 5.6 91 0.6 NE 22 28 12 15 1014.4 1014.4 0.0
23/04:00am 6.5 1.3 5.6 94 0.4 ENE 22 26 12 14 1014.7 1014.7 0.0
23/03:30am 6.5 1.3 5.5 93 0.4 ENE 22 28 12 15 1015.0 1015.0 0.0
23/03:00am 6.6 1.8 5.6 93 0.4 ENE 20 22 11 12 1015.6 1015.6 0.0
23/02:30am 6.3 1.4 5.1 92 0.5 ENE 20 26 11 14 1015.9 1015.9 0.0
23/02:00am 6.5 1.6 5.3 92 0.5 ENE 20 22 11 12 1015.9 1015.9 0.0
23/01:30am 6.4 1.8 5.4 93 0.4 ENE 19 22 10 12 1016.2 1016.2 0.0
23/01:00am 5.5 0.5 4.6 94 0.4 ENE 20 26 11 14 1016.5 1016.5 0.0
23/12:30am 5.3 0.3 4.4 94 0.4 ENE 20 24 11 13 1016.9 1016.9 0.0
23/12:00am 4.8 -0.2 3.8 93 0.4 ENE 19 20 10 11 1017.3 1017.3 0.0
 
Date/Time
CST
Temp
°C
App
Temp
°C
Dew
Point
°C
Rel
Hum
%
Delta-T
°C
Wind Press
QNH
hPa
Press
MSL
hPa
Rain since
9am
mm
Dir  Spd
km/h
Gust
km/h
Spd
kts
Gust
kts
22/11:30pm 4.5 -0.5 3.5 93 0.4 E 19 20 10 11 1017.5 1017.5 0.0
22/11:00pm 4.8 -0.2 3.6 92 0.5 E 19 20 10 11 1017.7 1017.7 0.0
22/10:30pm 4.7 0.1 3.5 92 0.5 E 17 19 9 10 1018.0 1018.0 0.0
22/10:00pm 5.1 0.2 3.9 92 0.5 E 19 20 10 11 1018.1 1018.1 0.0
22/09:30pm 5.5 0.6 4.2 91 0.6 E 19 20 10 11 1018.6 1018.6 0.0
22/09:00pm 5.7 0.8 4.3 91 0.6 E 19 20 10 11 1018.9 1018.9 0.0
22/08:30pm 6.2 1.4 4.8 91 0.6 E 19 20 10 11 1019.2 1019.2 0.0
22/08:00pm 6.9 2.3 5.4 90 0.7 ESE 19 20 10 11 1019.2 1019.2 0.0
22/07:30pm 7.2 3.9 4.7 84 1.1 E 11 15 6 8 1019.4 1019.4 0.0
22/07:00pm 10.4 8.1 7.3 81 1.5 E 9 13 5 7 1019.3 1019.3 0.0
22/06:30pm 11.3 9.0 7.6 78 1.8 ENE 9 11 5 6 1019.4 1019.4 0.0

Other Formats:

Comma delimited format used in spreadsheet applications
http://www.bom.gov.au/fwo/IDS60801/IDS60801.95659.axf

JavaScript Object Notation format (JSON) in row-major order
http://www.bom.gov.au/fwo/IDS60801/IDS60801.95659.json